sensor_id;sensor_type;location;lat;lon;timestamp;pressure;altitude;pressure_sealevel;temperature
22828;BMP180;11580;52.562;13.418;2022-08-24T00:00:31;101127.00;;;21.60
22828;BMP180;11580;52.562;13.418;2022-08-24T00:03:00;101111.00;;;21.60
22828;BMP180;11580;52.562;13.418;2022-08-24T00:05:27;101113.00;;;21.60
22828;BMP180;11580;52.562;13.418;2022-08-24T00:07:54;101122.00;;;21.60
22828;BMP180;11580;52.562;13.418;2022-08-24T00:10:21;101131.00;;;21.50
22828;BMP180;11580;52.562;13.418;2022-08-24T00:12:49;101130.00;;;21.50
22828;BMP180;11580;52.562;13.418;2022-08-24T00:15:17;101132.00;;;21.50
22828;BMP180;11580;52.562;13.418;2022-08-24T00:17:45;101127.00;;;21.50
22828;BMP180;11580;52.562;13.418;2022-08-24T00:20:13;101129.00;;;21.50
22828;BMP180;11580;52.562;13.418;2022-08-24T00:22:40;101132.00;;;21.50
22828;BMP180;11580;52.562;13.418;2022-08-24T00:25:09;101133.00;;;21.40
22828;BMP180;11580;52.562;13.418;2022-08-24T00:27:38;101126.00;;;21.40
22828;BMP180;11580;52.562;13.418;2022-08-24T00:30:11;101128.00;;;21.40
22828;BMP180;11580;52.562;13.418;2022-08-24T00:32:42;101127.00;;;21.40
22828;BMP180;11580;52.562;13.418;2022-08-24T00:35:11;101130.00;;;21.40
22828;BMP180;11580;52.562;13.418;2022-08-24T00:37:40;101126.00;;;21.40
22828;BMP180;11580;52.562;13.418;2022-08-24T00:40:13;101129.00;;;21.40
22828;BMP180;11580;52.562;13.418;2022-08-24T00:42:42;101133.00;;;21.30
22828;BMP180;11580;52.562;13.418;2022-08-24T00:45:13;101129.00;;;21.30
22828;BMP180;11580;52.562;13.418;2022-08-24T00:47:54;101139.00;;;21.30
22828;BMP180;11580;52.562;13.418;2022-08-24T00:50:34;101142.00;;;21.30
22828;BMP180;11580;52.562;13.418;2022-08-24T00:53:09;101124.00;;;21.30
22828;BMP180;11580;52.562;13.418;2022-08-24T00:55:45;101125.00;;;21.20
22828;BMP180;11580;52.562;13.418;2022-08-24T00:58:19;101117.00;;;21.20
22828;BMP180;11580;52.562;13.418;2022-08-24T01:00:53;101126.00;;;21.20
22828;BMP180;11580;52.562;13.418;2022-08-24T01:03:23;101131.00;;;21.20
22828;BMP180;11580;52.562;13.418;2022-08-24T01:05:51;101128.00;;;21.20
22828;BMP180;11580;52.562;13.418;2022-08-24T01:08:19;101130.00;;;21.20
22828;BMP180;11580;52.562;13.418;2022-08-24T01:10:55;101119.00;;;21.20
22828;BMP180;11580;52.562;13.418;2022-08-24T01:13:25;101125.00;;;21.20
22828;BMP180;11580;52.562;13.418;2022-08-24T01:15:58;101124.00;;;21.20
22828;BMP180;11580;52.562;13.418;2022-08-24T01:18:27;101116.00;;;21.20
22828;BMP180;11580;52.562;13.418;2022-08-24T01:21:17;101121.00;;;21.10
22828;BMP180;11580;52.562;13.418;2022-08-24T01:23:50;101123.00;;;21.10
22828;BMP180;11580;52.562;13.418;2022-08-24T01:26:25;101120.00;;;21.10
22828;BMP180;11580;52.562;13.418;2022-08-24T01:28:56;101127.00;;;21.10
22828;BMP180;11580;52.562;13.418;2022-08-24T01:31:25;101128.00;;;21.10
22828;BMP180;11580;52.562;13.418;2022-08-24T01:33:54;101127.00;;;21.10
22828;BMP180;11580;52.562;13.418;2022-08-24T01:36:29;101126.00;;;21.10
22828;BMP180;11580;52.562;13.418;2022-08-24T01:39:03;101130.00;;;21.10
22828;BMP180;11580;52.562;13.418;2022-08-24T01:41:31;101136.00;;;21.10
22828;BMP180;11580;52.562;13.418;2022-08-24T01:43:59;101131.00;;;21.00
22828;BMP180;11580;52.562;13.418;2022-08-24T01:46:28;101134.00;;;21.00
22828;BMP180;11580;52.562;13.418;2022-08-24T01:48:55;101142.00;;;21.00
22828;BMP180;11580;52.562;13.418;2022-08-24T01:51:23;101145.00;;;21.00
22828;BMP180;11580;52.562;13.418;2022-08-24T01:53:51;101136.00;;;21.10
22828;BMP180;11580;52.562;13.418;2022-08-24T01:56:20;101135.00;;;21.10
22828;BMP180;11580;52.562;13.418;2022-08-24T01:58:48;101143.00;;;21.20
22828;BMP180;11580;52.562;13.418;2022-08-24T02:01:18;101143.00;;;21.30
22828;BMP180;11580;52.562;13.418;2022-08-24T02:03:46;101144.00;;;21.30
22828;BMP180;11580;52.562;13.418;2022-08-24T02:06:14;101152.00;;;21.40
22828;BMP180;11580;52.562;13.418;2022-08-24T02:08:45;101148.00;;;21.50
22828;BMP180;11580;52.562;13.418;2022-08-24T02:11:14;101146.00;;;21.60
22828;BMP180;11580;52.562;13.418;2022-08-24T02:13:43;101151.00;;;21.70
22828;BMP180;11580;52.562;13.418;2022-08-24T02:16:10;101143.00;;;21.70
22828;BMP180;11580;52.562;13.418;2022-08-24T02:18:39;101149.00;;;21.80
22828;BMP180;11580;52.562;13.418;2022-08-24T02:21:07;101143.00;;;21.90
22828;BMP180;11580;52.562;13.418;2022-08-24T02:23:35;101144.00;;;21.90
22828;BMP180;11580;52.562;13.418;2022-08-24T02:26:03;101146.00;;;22.00
22828;BMP180;11580;52.562;13.418;2022-08-24T02:28:31;101143.00;;;22.10
22828;BMP180;11580;52.562;13.418;2022-08-24T02:31:00;101142.00;;;22.10
22828;BMP180;11580;52.562;13.418;2022-08-24T02:33:30;101144.00;;;22.20
22828;BMP180;11580;52.562;13.418;2022-08-24T02:35:57;101141.00;;;22.20
22828;BMP180;11580;52.562;13.418;2022-08-24T02:38:25;101140.00;;;22.20
22828;BMP180;11580;52.562;13.418;2022-08-24T02:40:52;101138.00;;;22.20
22828;BMP180;11580;52.562;13.418;2022-08-24T02:43:19;101143.00;;;22.20
22828;BMP180;11580;52.562;13.418;2022-08-24T02:45:47;101136.00;;;22.20
22828;BMP180;11580;52.562;13.418;2022-08-24T02:48:16;101134.00;;;22.20
22828;BMP180;11580;52.562;13.418;2022-08-24T02:50:47;101123.00;;;22.20
22828;BMP180;11580;52.562;13.418;2022-08-24T02:53:18;101127.00;;;22.10
22828;BMP180;11580;52.562;13.418;2022-08-24T02:55:46;101133.00;;;22.10
22828;BMP180;11580;52.562;13.418;2022-08-24T02:58:16;101129.00;;;22.10
22828;BMP180;11580;52.562;13.418;2022-08-24T03:00:47;101128.00;;;22.00
22828;BMP180;11580;52.562;13.418;2022-08-24T03:03:19;101133.00;;;22.00
22828;BMP180;11580;52.562;13.418;2022-08-24T03:05:47;101128.00;;;21.90
22828;BMP180;11580;52.562;13.418;2022-08-24T03:08:14;101094.00;;;21.90
22828;BMP180;11580;52.562;13.418;2022-08-24T03:10:43;101125.00;;;21.80
22828;BMP180;11580;52.562;13.418;2022-08-24T03:13:12;101121.00;;;21.80
22828;BMP180;11580;52.562;13.418;2022-08-24T03:15:39;101128.00;;;21.70
22828;BMP180;11580;52.562;13.418;2022-08-24T03:18:07;101131.00;;;21.70
22828;BMP180;11580;52.562;13.418;2022-08-24T03:20:36;101128.00;;;21.70
22828;BMP180;11580;52.562;13.418;2022-08-24T03:23:04;101133.00;;;21.60
22828;BMP180;11580;52.562;13.418;2022-08-24T03:25:32;101126.00;;;21.60
22828;BMP180;11580;52.562;13.418;2022-08-24T03:27:59;101127.00;;;21.60
22828;BMP180;11580;52.562;13.418;2022-08-24T03:30:28;101133.00;;;21.50
22828;BMP180;11580;52.562;13.418;2022-08-24T03:32:55;101134.00;;;21.50
22828;BMP180;11580;52.562;13.418;2022-08-24T03:35:23;101135.00;;;21.50
22828;BMP180;11580;52.562;13.418;2022-08-24T03:37:51;101133.00;;;21.40
22828;BMP180;11580;52.562;13.418;2022-08-24T03:40:19;101131.00;;;21.40
22828;BMP180;11580;52.562;13.418;2022-08-24T03:42:48;101134.00;;;21.40
22828;BMP180;11580;52.562;13.418;2022-08-24T03:45:15;101128.00;;;21.40
22828;BMP180;11580;52.562;13.418;2022-08-24T03:47:44;101125.00;;;21.30
22828;BMP180;11580;52.562;13.418;2022-08-24T03:50:13;101128.00;;;21.30
22828;BMP180;11580;52.562;13.418;2022-08-24T03:52:41;101138.00;;;21.30
22828;BMP180;11580;52.562;13.418;2022-08-24T03:55:10;101134.00;;;21.30
22828;BMP180;11580;52.562;13.418;2022-08-24T03:57:38;101142.00;;;21.20
22828;BMP180;11580;52.562;13.418;2022-08-24T04:00:10;101122.00;;;21.20
22828;BMP180;11580;52.562;13.418;2022-08-24T04:02:52;101136.00;;;21.20
22828;BMP180;11580;52.562;13.418;2022-08-24T04:05:22;101143.00;;;21.20
22828;BMP180;11580;52.562;13.418;2022-08-24T04:07:49;101140.00;;;21.20
22828;BMP180;11580;52.562;13.418;2022-08-24T04:10:18;101141.00;;;21.20
22828;BMP180;11580;52.562;13.418;2022-08-24T04:12:46;101138.00;;;21.10
22828;BMP180;11580;52.562;13.418;2022-08-24T04:15:13;101147.00;;;21.10
22828;BMP180;11580;52.562;13.418;2022-08-24T04:17:41;101144.00;;;21.10
22828;BMP180;11580;52.562;13.418;2022-08-24T04:20:09;101146.00;;;21.10
22828;BMP180;11580;52.562;13.418;2022-08-24T04:22:39;101145.00;;;21.10
22828;BMP180;11580;52.562;13.418;2022-08-24T04:25:09;101154.00;;;21.10
22828;BMP180;11580;52.562;13.418;2022-08-24T04:27:40;101157.00;;;21.20
22828;BMP180;11580;52.562;13.418;2022-08-24T04:30:10;101155.00;;;21.20
22828;BMP180;11580;52.562;13.418;2022-08-24T04:32:57;101156.00;;;21.20
22828;BMP180;11580;52.562;13.418;2022-08-24T04:35:24;101161.00;;;21.20
22828;BMP180;11580;52.562;13.418;2022-08-24T04:37:52;101161.00;;;21.30
22828;BMP180;11580;52.562;13.418;2022-08-24T04:40:19;101166.00;;;21.30
22828;BMP180;11580;52.562;13.418;2022-08-24T04:42:50;101176.00;;;21.30
22828;BMP180;11580;52.562;13.418;2022-08-24T04:45:17;101175.00;;;21.40
22828;BMP180;11580;52.562;13.418;2022-08-24T04:47:45;101167.00;;;21.40
22828;BMP180;11580;52.562;13.418;2022-08-24T04:50:12;101168.00;;;21.50
22828;BMP180;11580;52.562;13.418;2022-08-24T04:52:40;101174.00;;;21.60
22828;BMP180;11580;52.562;13.418;2022-08-24T04:55:08;101170.00;;;21.60
22828;BMP180;11580;52.562;13.418;2022-08-24T04:57:36;101170.00;;;21.70
22828;BMP180;11580;52.562;13.418;2022-08-24T05:00:07;101174.00;;;21.80
22828;BMP180;11580;52.562;13.418;2022-08-24T05:02:36;101175.00;;;21.90
22828;BMP180;11580;52.562;13.418;2022-08-24T05:05:06;101175.00;;;22.00
22828;BMP180;11580;52.562;13.418;2022-08-24T05:07:34;101191.00;;;22.00
22828;BMP180;11580;52.562;13.418;2022-08-24T05:10:02;101183.00;;;22.10
22828;BMP180;11580;52.562;13.418;2022-08-24T05:12:29;101190.00;;;22.10
22828;BMP180;11580;52.562;13.418;2022-08-24T05:15:00;101192.00;;;22.20
22828;BMP180;11580;52.562;13.418;2022-08-24T05:17:34;101201.00;;;22.30
22828;BMP180;11580;52.562;13.418;2022-08-24T05:20:02;101205.00;;;22.40
22828;BMP180;11580;52.562;13.418;2022-08-24T05:22:29;101197.00;;;22.40
22828;BMP180;11580;52.562;13.418;2022-08-24T05:24:57;101207.00;;;22.50
22828;BMP180;11580;52.562;13.418;2022-08-24T05:27:24;101210.00;;;22.60
22828;BMP180;11580;52.562;13.418;2022-08-24T05:29:53;101216.00;;;22.60
22828;BMP180;11580;52.562;13.418;2022-08-24T05:32:21;101219.00;;;22.70
22828;BMP180;11580;52.562;13.418;2022-08-24T05:34:52;101217.00;;;22.70
22828;BMP180;11580;52.562;13.418;2022-08-24T05:37:19;101214.00;;;22.80
22828;BMP180;11580;52.562;13.418;2022-08-24T05:40:04;101216.00;;;22.90
22828;BMP180;11580;52.562;13.418;2022-08-24T05:42:35;101215.00;;;23.00
22828;BMP180;11580;52.562;13.418;2022-08-24T05:45:05;101214.00;;;23.10
22828;BMP180;11580;52.562;13.418;2022-08-24T05:47:34;101215.00;;;23.20
22828;BMP180;11580;52.562;13.418;2022-08-24T05:50:09;101221.00;;;23.30
22828;BMP180;11580;52.562;13.418;2022-08-24T05:52:37;101220.00;;;23.30
22828;BMP180;11580;52.562;13.418;2022-08-24T05:55:07;101219.00;;;23.40
22828;BMP180;11580;52.562;13.418;2022-08-24T05:57:35;101224.00;;;23.40
22828;BMP180;11580;52.562;13.418;2022-08-24T06:00:15;101225.00;;;23.50
22828;BMP180;11580;52.562;13.418;2022-08-24T06:02:45;101222.00;;;23.50
22828;BMP180;11580;52.562;13.418;2022-08-24T06:05:15;101223.00;;;23.60
22828;BMP180;11580;52.562;13.418;2022-08-24T06:07:42;101235.00;;;23.60
22828;BMP180;11580;52.562;13.418;2022-08-24T06:10:10;101230.00;;;23.70
22828;BMP180;11580;52.562;13.418;2022-08-24T06:12:38;101238.00;;;23.70
22828;BMP180;11580;52.562;13.418;2022-08-24T06:15:07;101244.00;;;23.80
22828;BMP180;11580;52.562;13.418;2022-08-24T06:17:34;101241.00;;;23.80
22828;BMP180;11580;52.562;13.418;2022-08-24T06:20:03;101238.00;;;23.90
22828;BMP180;11580;52.562;13.418;2022-08-24T06:22:32;101242.00;;;24.00
22828;BMP180;11580;52.562;13.418;2022-08-24T06:25:00;101244.00;;;24.00
22828;BMP180;11580;52.562;13.418;2022-08-24T06:27:45;101241.00;;;24.10
22828;BMP180;11580;52.562;13.418;2022-08-24T06:30:13;101233.00;;;24.20
22828;BMP180;11580;52.562;13.418;2022-08-24T06:32:40;101241.00;;;24.40
22828;BMP180;11580;52.562;13.418;2022-08-24T06:35:11;101247.00;;;24.50
22828;BMP180;11580;52.562;13.418;2022-08-24T06:37:39;101249.00;;;24.60
22828;BMP180;11580;52.562;13.418;2022-08-24T06:40:09;101243.00;;;24.60
22828;BMP180;11580;52.562;13.418;2022-08-24T06:42:37;101251.00;;;24.70
22828;BMP180;11580;52.562;13.418;2022-08-24T06:45:16;101236.00;;;24.80
22828;BMP180;11580;52.562;13.418;2022-08-24T06:47:44;101255.00;;;24.80
22828;BMP180;11580;52.562;13.418;2022-08-24T06:50:19;101256.00;;;24.90
22828;BMP180;11580;52.562;13.418;2022-08-24T06:52:48;101261.00;;;24.90
22828;BMP180;11580;52.562;13.418;2022-08-24T06:55:15;101270.00;;;25.00
22828;BMP180;11580;52.562;13.418;2022-08-24T06:57:42;101275.00;;;25.00
22828;BMP180;11580;52.562;13.418;2022-08-24T07:00:11;101268.00;;;25.00
22828;BMP180;11580;52.562;13.418;2022-08-24T07:02:41;101278.00;;;25.10
22828;BMP180;11580;52.562;13.418;2022-08-24T07:05:10;101273.00;;;25.10
22828;BMP180;11580;52.562;13.418;2022-08-24T07:07:59;101281.00;;;25.20
22828;BMP180;11580;52.562;13.418;2022-08-24T07:10:27;101278.00;;;25.20
22828;BMP180;11580;52.562;13.418;2022-08-24T07:12:55;101279.00;;;25.30
22828;BMP180;11580;52.562;13.418;2022-08-24T07:15:22;101288.00;;;25.30
22828;BMP180;11580;52.562;13.418;2022-08-24T07:18:10;101273.00;;;25.40
22828;BMP180;11580;52.562;13.418;2022-08-24T07:20:41;101282.00;;;25.50
22828;BMP180;11580;52.562;13.418;2022-08-24T07:23:22;101276.00;;;25.60
22828;BMP180;11580;52.562;13.418;2022-08-24T07:25:51;101285.00;;;25.70
22828;BMP180;11580;52.562;13.418;2022-08-24T07:28:20;101285.00;;;25.80
22828;BMP180;11580;52.562;13.418;2022-08-24T07:30:48;101281.00;;;25.80
22828;BMP180;11580;52.562;13.418;2022-08-24T07:33:15;101282.00;;;25.90
22828;BMP180;11580;52.562;13.418;2022-08-24T07:35:44;101291.00;;;26.00
22828;BMP180;11580;52.562;13.418;2022-08-24T07:38:12;101287.00;;;26.10
22828;BMP180;11580;52.562;13.418;2022-08-24T07:40:45;101291.00;;;26.30
22828;BMP180;11580;52.562;13.418;2022-08-24T07:43:13;101287.00;;;26.40
22828;BMP180;11580;52.562;13.418;2022-08-24T07:45:41;101300.00;;;26.50
22828;BMP180;11580;52.562;13.418;2022-08-24T07:48:09;101306.00;;;26.50
22828;BMP180;11580;52.562;13.418;2022-08-24T07:50:41;101299.00;;;26.60
22828;BMP180;11580;52.562;13.418;2022-08-24T07:53:08;101306.00;;;26.60
22828;BMP180;11580;52.562;13.418;2022-08-24T07:55:36;101302.00;;;26.70
22828;BMP180;11580;52.562;13.418;2022-08-24T07:58:05;101304.00;;;26.80
22828;BMP180;11580;52.562;13.418;2022-08-24T08:00:33;101303.00;;;26.90
22828;BMP180;11580;52.562;13.418;2022-08-24T08:03:02;101303.00;;;26.90
22828;BMP180;11580;52.562;13.418;2022-08-24T08:05:38;101305.00;;;27.00
22828;BMP180;11580;52.562;13.418;2022-08-24T08:08:06;101314.00;;;27.00
22828;BMP180;11580;52.562;13.418;2022-08-24T08:10:35;101306.00;;;27.10
22828;BMP180;11580;52.562;13.418;2022-08-24T08:13:06;101323.00;;;27.20
22828;BMP180;11580;52.562;13.418;2022-08-24T08:15:33;101314.00;;;27.30
22828;BMP180;11580;52.562;13.418;2022-08-24T08:18:05;101313.00;;;27.30
22828;BMP180;11580;52.562;13.418;2022-08-24T08:20:38;101310.00;;;27.30
22828;BMP180;11580;52.562;13.418;2022-08-24T08:23:07;101311.00;;;27.40
22828;BMP180;11580;52.562;13.418;2022-08-24T08:26:06;101312.00;;;27.40
22828;BMP180;11580;52.562;13.418;2022-08-24T08:29:08;101313.00;;;27.40
22828;BMP180;11580;52.562;13.418;2022-08-24T08:31:40;101304.00;;;27.40
22828;BMP180;11580;52.562;13.418;2022-08-24T08:34:08;101310.00;;;27.40
22828;BMP180;11580;52.562;13.418;2022-08-24T08:36:38;101303.00;;;27.40
22828;BMP180;11580;52.562;13.418;2022-08-24T08:39:08;101324.00;;;27.50
22828;BMP180;11580;52.562;13.418;2022-08-24T08:42:10;101321.00;;;27.60
22828;BMP180;11580;52.562;13.418;2022-08-24T08:44:58;101317.00;;;27.60
22828;BMP180;11580;52.562;13.418;2022-08-24T08:51:15;101329.00;;;27.90
22828;BMP180;11580;52.562;13.418;2022-08-24T08:57:25;101328.00;;;28.40
22828;BMP180;11580;52.562;13.418;2022-08-24T09:00:09;101341.00;;;28.60
22828;BMP180;11580;52.562;13.418;2022-08-24T09:03:03;101348.00;;;28.90
22828;BMP180;11580;52.562;13.418;2022-08-24T09:06:15;101334.00;;;29.10
22828;BMP180;11580;52.562;13.418;2022-08-24T09:09:03;101343.00;;;29.20
22828;BMP180;11580;52.562;13.418;2022-08-24T09:11:46;101342.00;;;29.20
22828;BMP180;11580;52.562;13.418;2022-08-24T09:14:53;101341.00;;;29.10
22828;BMP180;11580;52.562;13.418;2022-08-24T09:17:40;101337.00;;;29.20
22828;BMP180;11580;52.562;13.418;2022-08-24T09:20:25;101339.00;;;29.20
22828;BMP180;11580;52.562;13.418;2022-08-24T09:23:10;101340.00;;;29.30
22828;BMP180;11580;52.562;13.418;2022-08-24T09:25:53;101340.00;;;29.40
22828;BMP180;11580;52.562;13.418;2022-08-24T09:28:40;101346.00;;;29.50
22828;BMP180;11580;52.562;13.418;2022-08-24T09:34:34;101342.00;;;29.50
22828;BMP180;11580;52.562;13.418;2022-08-24T09:37:31;101341.00;;;29.50
22828;BMP180;11580;52.562;13.418;2022-08-24T09:40:15;101349.00;;;29.50
22828;BMP180;11580;52.562;13.418;2022-08-24T09:44:00;101339.00;;;29.40
22828;BMP180;11580;52.562;13.418;2022-08-24T09:47:30;101343.00;;;29.30
22828;BMP180;11580;52.562;13.418;2022-08-24T09:50:55;101345.00;;;29.20
22828;BMP180;11580;52.562;13.418;2022-08-24T09:57:29;101337.00;;;29.10
22828;BMP180;11580;52.562;13.418;2022-08-24T10:00:09;101346.00;;;29.00
22828;BMP180;11580;52.562;13.418;2022-08-24T10:03:04;101349.00;;;28.90
22828;BMP180;11580;52.562;13.418;2022-08-24T10:06:02;101350.00;;;28.80
22828;BMP180;11580;52.562;13.418;2022-08-24T10:08:58;101348.00;;;28.80
22828;BMP180;11580;52.562;13.418;2022-08-24T10:11:41;101342.00;;;28.80
22828;BMP180;11580;52.562;13.418;2022-08-24T10:14:19;101336.00;;;28.70
22828;BMP180;11580;52.562;13.418;2022-08-24T10:17:08;101341.00;;;28.80
22828;BMP180;11580;52.562;13.418;2022-08-24T10:19:57;101329.00;;;28.90
22828;BMP180;11580;52.562;13.418;2022-08-24T10:22:47;101331.00;;;29.00
22828;BMP180;11580;52.562;13.418;2022-08-24T10:25:30;101327.00;;;29.20
22828;BMP180;11580;52.562;13.418;2022-08-24T10:28:29;101331.00;;;29.50
22828;BMP180;11580;52.562;13.418;2022-08-24T10:31:06;101308.00;;;29.60
22828;BMP180;11580;52.562;13.418;2022-08-24T10:33:45;101324.00;;;29.80
22828;BMP180;11580;52.562;13.418;2022-08-24T10:36:48;101325.00;;;29.90
22828;BMP180;11580;52.562;13.418;2022-08-24T10:39:57;101321.00;;;30.10
22828;BMP180;11580;52.562;13.418;2022-08-24T10:42:56;101321.00;;;30.20
22828;BMP180;11580;52.562;13.418;2022-08-24T10:46:34;101322.00;;;30.10
22828;BMP180;11580;52.562;13.418;2022-08-24T10:53:14;101317.00;;;30.00
22828;BMP180;11580;52.562;13.418;2022-08-24T10:55:45;101313.00;;;29.90
22828;BMP180;11580;52.562;13.418;2022-08-24T10:58:47;101313.00;;;29.90
22828;BMP180;11580;52.562;13.418;2022-08-24T11:01:24;101314.00;;;29.90
22828;BMP180;11580;52.562;13.418;2022-08-24T11:03:59;101312.00;;;29.90
22828;BMP180;11580;52.562;13.418;2022-08-24T11:06:31;101316.00;;;29.80
22828;BMP180;11580;52.562;13.418;2022-08-24T11:09:05;101311.00;;;29.90
22828;BMP180;11580;52.562;13.418;2022-08-24T11:11:37;101311.00;;;29.90
22828;BMP180;11580;52.562;13.418;2022-08-24T11:14:08;101318.00;;;29.90
22828;BMP180;11580;52.562;13.418;2022-08-24T11:16:39;101318.00;;;29.90
22828;BMP180;11580;52.562;13.418;2022-08-24T11:19:10;101308.00;;;29.80
22828;BMP180;11580;52.562;13.418;2022-08-24T11:21:47;101310.00;;;29.80
22828;BMP180;11580;52.562;13.418;2022-08-24T11:24:40;101306.00;;;29.70
22828;BMP180;11580;52.562;13.418;2022-08-24T11:27:29;101306.00;;;29.70
22828;BMP180;11580;52.562;13.418;2022-08-24T11:30:06;101306.00;;;29.70
22828;BMP180;11580;52.562;13.418;2022-08-24T11:32:41;101298.00;;;29.70
22828;BMP180;11580;52.562;13.418;2022-08-24T11:35:20;101298.00;;;29.80
22828;BMP180;11580;52.562;13.418;2022-08-24T11:37:51;101305.00;;;29.80
22828;BMP180;11580;52.562;13.418;2022-08-24T11:40:22;101297.00;;;29.70
22828;BMP180;11580;52.562;13.418;2022-08-24T11:43:19;101309.00;;;29.70
22828;BMP180;11580;52.562;13.418;2022-08-24T11:46:09;101303.00;;;29.60
22828;BMP180;11580;52.562;13.418;2022-08-24T11:48:51;101290.00;;;29.50
22828;BMP180;11580;52.562;13.418;2022-08-24T11:51:35;101294.00;;;29.50
22828;BMP180;11580;52.562;13.418;2022-08-24T11:54:17;101278.00;;;29.60
22828;BMP180;11580;52.562;13.418;2022-08-24T11:57:04;101282.00;;;29.80
22828;BMP180;11580;52.562;13.418;2022-08-24T11:59:46;101283.00;;;29.90
22828;BMP180;11580;52.562;13.418;2022-08-24T12:02:23;101279.00;;;30.10
22828;BMP180;11580;52.562;13.418;2022-08-24T12:05:00;101291.00;;;30.20
22828;BMP180;11580;52.562;13.418;2022-08-24T12:07:46;101287.00;;;30.20
22828;BMP180;11580;52.562;13.418;2022-08-24T12:10:26;101280.00;;;30.10
22828;BMP180;11580;52.562;13.418;2022-08-24T12:13:01;101282.00;;;30.10
22828;BMP180;11580;52.562;13.418;2022-08-24T12:15:42;101281.00;;;30.10
22828;BMP180;11580;52.562;13.418;2022-08-24T12:18:25;101280.00;;;30.10
22828;BMP180;11580;52.562;13.418;2022-08-24T12:20:56;101286.00;;;30.10
22828;BMP180;11580;52.562;13.418;2022-08-24T12:23:33;101282.00;;;30.30
22828;BMP180;11580;52.562;13.418;2022-08-24T12:26:08;101274.00;;;30.40
22828;BMP180;11580;52.562;13.418;2022-08-24T12:28:40;101264.00;;;30.60
22828;BMP180;11580;52.562;13.418;2022-08-24T12:31:18;101278.00;;;30.80
22828;BMP180;11580;52.562;13.418;2022-08-24T12:33:51;101278.00;;;30.90
22828;BMP180;11580;52.562;13.418;2022-08-24T12:36:27;101282.00;;;31.00
22828;BMP180;11580;52.562;13.418;2022-08-24T12:39:08;101274.00;;;31.20
22828;BMP180;11580;52.562;13.418;2022-08-24T12:41:47;101274.00;;;31.40
22828;BMP180;11580;52.562;13.418;2022-08-24T12:44:17;101271.00;;;31.60
22828;BMP180;11580;52.562;13.418;2022-08-24T12:46:51;101264.00;;;31.80
22828;BMP180;11580;52.562;13.418;2022-08-24T12:49:25;101270.00;;;32.00
22828;BMP180;11580;52.562;13.418;2022-08-24T12:52:30;101260.00;;;32.10
22828;BMP180;11580;52.562;13.418;2022-08-24T13:01:31;101259.00;;;31.70
22828;BMP180;11580;52.562;13.418;2022-08-24T13:04:14;101268.00;;;31.60
22828;BMP180;11580;52.562;13.418;2022-08-24T13:06:49;101261.00;;;31.60
22828;BMP180;11580;52.562;13.418;2022-08-24T13:09:31;101254.00;;;31.50
22828;BMP180;11580;52.562;13.418;2022-08-24T13:12:58;101269.00;;;31.50
22828;BMP180;11580;52.562;13.418;2022-08-24T13:16:00;101259.00;;;31.50
22828;BMP180;11580;52.562;13.418;2022-08-24T13:21:49;101265.00;;;31.70
22828;BMP180;11580;52.562;13.418;2022-08-24T13:24:58;101275.00;;;31.90
22828;BMP180;11580;52.562;13.418;2022-08-24T13:28:26;101274.00;;;32.20
22828;BMP180;11580;52.562;13.418;2022-08-24T13:31:18;101287.00;;;32.30
22828;BMP180;11580;52.562;13.418;2022-08-24T13:33:50;101283.00;;;32.30
22828;BMP180;11580;52.562;13.418;2022-08-24T13:37:01;101280.00;;;32.30
22828;BMP180;11580;52.562;13.418;2022-08-24T13:40:13;101278.00;;;32.10
22828;BMP180;11580;52.562;13.418;2022-08-24T13:43:08;101281.00;;;32.00
22828;BMP180;11580;52.562;13.418;2022-08-24T13:45:45;101278.00;;;32.00
22828;BMP180;11580;52.562;13.418;2022-08-24T13:48:40;101275.00;;;31.90
22828;BMP180;11580;52.562;13.418;2022-08-24T13:51:28;101278.00;;;31.80
22828;BMP180;11580;52.562;13.418;2022-08-24T13:54:22;101273.00;;;31.70
22828;BMP180;11580;52.562;13.418;2022-08-24T13:57:18;101272.00;;;31.60
22828;BMP180;11580;52.562;13.418;2022-08-24T14:00:10;101266.00;;;31.50
22828;BMP180;11580;52.562;13.418;2022-08-24T14:02:55;101262.00;;;31.40
22828;BMP180;11580;52.562;13.418;2022-08-24T14:05:34;101267.00;;;31.40
22828;BMP180;11580;52.562;13.418;2022-08-24T14:08:26;101257.00;;;31.30
22828;BMP180;11580;52.562;13.418;2022-08-24T14:11:08;101262.00;;;31.30
22828;BMP180;11580;52.562;13.418;2022-08-24T14:13:59;101260.00;;;31.30
22828;BMP180;11580;52.562;13.418;2022-08-24T14:16:47;101253.00;;;31.30
22828;BMP180;11580;52.562;13.418;2022-08-24T14:19:47;101258.00;;;31.20
22828;BMP180;11580;52.562;13.418;2022-08-24T14:22:29;101254.00;;;31.30
22828;BMP180;11580;52.562;13.418;2022-08-24T14:25:16;101255.00;;;31.40
22828;BMP180;11580;52.562;13.418;2022-08-24T14:27:49;101252.00;;;31.40
22828;BMP180;11580;52.562;13.418;2022-08-24T14:30:45;101256.00;;;31.50
22828;BMP180;11580;52.562;13.418;2022-08-24T14:33:24;101255.00;;;31.40
22828;BMP180;11580;52.562;13.418;2022-08-24T14:36:13;101261.00;;;31.40
22828;BMP180;11580;52.562;13.418;2022-08-24T14:39:07;101255.00;;;31.30
22828;BMP180;11580;52.562;13.418;2022-08-24T14:41:51;101253.00;;;31.30
22828;BMP180;11580;52.562;13.418;2022-08-24T14:44:50;101259.00;;;31.20
22828;BMP180;11580;52.562;13.418;2022-08-24T14:47:39;101245.00;;;31.20
22828;BMP180;11580;52.562;13.418;2022-08-24T14:50:16;101245.00;;;31.20
22828;BMP180;11580;52.562;13.418;2022-08-24T14:52:58;101253.00;;;31.20
22828;BMP180;11580;52.562;13.418;2022-08-24T14:55:38;101260.00;;;31.20
22828;BMP180;11580;52.562;13.418;2022-08-24T14:58:24;101248.00;;;31.30
22828;BMP180;11580;52.562;13.418;2022-08-24T15:01:39;101250.00;;;31.20
22828;BMP180;11580;52.562;13.418;2022-08-24T15:04:35;101240.00;;;31.20